• Join FlightAware (Why Join?)
  • Login
  • US Flag 
01:35AM EDT


 

Airport Tracker/Info


-or-


 

Live Flight TrackerFlight Track Log ✈ RPA3357 ✈ 05-Feb-2014 ✈ KPHL - KATL

Flight Track Log - Related Links

Times and Time Zones

All times are in EST time to prevent confusion due to time zone crossing. See the RPA3357 flight status page for this flight to view local times or setup timezone preferences in your user account.

Time Position Orientation Groundspeed Altitude Reporting Facility
EST Latitude Longitude Course Direction KTS MPH feet Rate Location/Type
12:19PM 39.8833 -75.2167 258° West 151 174 1,000  Level Philadelphia TRACON
12:19PM 39.8833 -75.2000 90° East 162 186 1,600 1,380 Climbing Philadelphia TRACON
12:20PM 39.9333 -75.1833 14° North 265 305 3,000 2,700 Climbing Philadelphia TRACON
12:21PM 39.8499 -75.5835 218° Southwest  Level FlightAware Approximate
12:21PM 39.9333 -75.2667 270° West 210 242 7,000  Level Philadelphia TRACON
12:22PM 39.8334 -75.6917 270° West  Level FlightAware Approximate
12:23PM 39.8289 -75.8100 258° West  Level FlightAware Approximate
12:23PM 39.9147 -75.3853 258° West 231 266 10,000  Level New York Center
12:24PM 39.8096 -75.9261 258° West  Level FlightAware Approximate
12:24PM 39.8989 -75.4736 257° West 244 281 11,200  Level New York Center
12:25PM 39.8786 -75.5642 254° West 251 289 12,000 1,080 Climbing New York Center
12:26PM 39.8644 -75.6525 258° West 262 302 13,400 2,100 Climbing New York Center
12:27PM 39.8483 -75.7406 257° West 256 295 16,300 2,160 Climbing New York Center
12:28PM 39.8053 -75.8186 234° Southwest 254 292 17,800 1,800 Climbing New York Center
12:29PM 39.7622 -75.9019 236° Southwest 268 308 19,900 1,920 Climbing New York Center
12:30PM 39.7167 -75.9850 235° Southwest 275 316 21,700 1,680 Climbing New York Center
12:31PM 39.6694 -76.0681 234° Southwest 281 323 23,300 1,020 Climbing New York Center
12:33PM 39.5639 -76.2564 234° Southwest 320 368 24,900 840 Climbing Washington Center
12:34PM 39.5092 -76.3528 234° Southwest 332 382 26,000 960 Climbing Washington Center
12:35PM 39.4542 -76.4542 235° Southwest 339 390 26,900 960 Climbing Washington Center
12:36PM 39.3972 -76.5531 233° Southwest 344 396 28,000 1,020 Climbing Washington Center
12:37PM 39.3422 -76.6517 234° Southwest 344 396 29,000 900 Climbing Washington Center
12:38PM 39.2872 -76.7472 233° Southwest 339 390 29,900 840 Climbing Washington Center
12:39PM 39.2319 -76.8428 233° Southwest 339 390 30,700 780 Climbing Washington Center
12:40PM 39.1767 -76.9411 234° Southwest 339 390 31,500 720 Climbing Washington Center
12:41PM 39.1214 -77.0389 234° Southwest 339 390 32,200 720 Climbing Washington Center
12:42PM 39.0661 -77.1342 233° Southwest 339 390 33,000 780 Climbing Washington Center
12:43PM 39.0147 -77.2267 234° Southwest 339 390 33,800 480 Climbing Washington Center
12:44PM 38.9614 -77.3189 233° Southwest 339 390 34,000 60 Climbing Washington Center
12:45PM 38.9036 -77.4161 233° Southwest 339 390 34,000  Level Washington Center
12:46PM 38.8439 -77.5186 233° Southwest 339 390 34,000  Level Washington Center
12:47PM 38.7900 -77.6158 235° Southwest 339 390 34,000  Level Washington Center
12:48PM 38.7322 -77.7100 232° Southwest 339 390 34,000  Level Washington Center
12:49PM 38.6783 -77.8042 234° Southwest 339 390 34,000  Level Washington Center
12:50PM 38.6244 -77.9008 235° Southwest 339 390 34,000  Level Washington Center
12:51PM 38.5664 -77.9947 232° Southwest 339 390 34,000  Level Washington Center
12:52PM 38.5100 -78.0911 233° Southwest 339 390 34,000  Level Washington Center
12:53PM 38.4539 -78.1847 233° Southwest 339 390 34,000  Level Washington Center
12:54PM 38.3997 -78.2808 234° Southwest 339 390 34,000  Level Washington Center
12:55PM 38.3433 -78.3739 232° Southwest 339 390 34,000  Level Washington Center
12:56PM 38.2847 -78.4697 232° Southwest 339 390 34,000  Level Washington Center
12:57PM 38.2389 -78.5553 236° Southwest 332 382 34,000  Level Washington Center
12:58PM 38.1822 -78.6508 233° Southwest 332 382 34,000  Level Washington Center
12:59PM 38.1192 -78.7536 232° Southwest 341 392 34,000  Level Washington Center
01:00PM 38.0644 -78.8464 233° Southwest 341 392 34,000  Level Washington Center
01:02PM 37.9486 -79.0336 232° Southwest 341 392 34,000  Level Washington Center
01:03PM 37.8942 -79.1206 232° Southwest 341 392 34,000  Level Washington Center
01:04PM 37.8331 -79.2072 228° Southwest 341 392 34,000  Level Washington Center
01:05PM 37.7700 -79.2961 228° Southwest 347 399 34,000  Level Washington Center
01:06PM 37.6958 -79.3922 226° Southwest 347 399 34,000  Level Washington Center
01:07PM 37.6325 -79.4808 228° Southwest 353 406 34,000  Level Washington Center
01:08PM 37.5692 -79.5692 228° Southwest 353 406 34,000  Level Washington Center
01:09PM 37.5103 -79.6500 227° Southwest 353 406 34,000  Level Washington Center
01:10PM 37.4467 -79.7356 227° Southwest 347 399 34,000  Level Washington Center
01:11PM 37.3808 -79.8286 228° Southwest 355 409 34,000  Level Washington Center
01:13PM 37.2014 -80.0678 227° Southwest 344 396 34,000  Level Atlanta Center
01:14PM 37.1433 -80.1464 227° Southwest 350 403 34,000  Level Atlanta Center
01:15PM 37.0753 -80.2356 226° Southwest 355 409 34,000  Level Atlanta Center
01:16PM 37.0114 -80.3217 227° Southwest 350 403 34,000  Level Atlanta Center
01:17PM 36.9453 -80.4106 227° Southwest 350 403 34,000  Level Atlanta Center
01:18PM 36.8750 -80.5047 227° Southwest 350 403 34,000  Level Atlanta Center
01:19PM 36.8067 -80.5933 226° Southwest 350 403 34,000  Level Atlanta Center
01:20PM 36.7422 -80.6789 227° Southwest 350 403 34,000  Level Atlanta Center
01:21PM 36.6758 -80.7672 227° Southwest 355 409 34,000  Level Atlanta Center
01:22PM 36.6175 -80.8472 228° Southwest 355 409 34,000  Level Atlanta Center
01:23PM 36.5508 -80.9375 227° Southwest 355 409 34,000  Level Atlanta Center
01:24PM 36.4803 -81.0333 228° Southwest 355 409 34,000  Level Atlanta Center
01:25PM 36.4136 -81.1183 226° Southwest 349 402 34,000  Level Atlanta Center
01:26PM 36.3469 -81.2083 227° Southwest 349 402 34,000  Level Atlanta Center
01:27PM 36.2861 -81.2878 226° Southwest 355 409 34,000  Level Atlanta Center
01:28PM 36.2192 -81.3750 226° Southwest 355 409 34,000  Level Atlanta Center
01:29PM 36.1503 -81.4647 226° Southwest 355 409 34,000  Level Atlanta Center
01:30PM 36.0811 -81.5517 225° Southwest 355 409 34,000  Level Atlanta Center
01:31PM 36.0139 -81.6411 227° Southwest 355 409 34,000  Level Atlanta Center
01:32PM 35.9428 -81.7278 225° Southwest 355 409 34,000  Level Atlanta Center
01:33PM 35.8756 -81.8169 227° Southwest 355 409 34,000  Level Atlanta Center
01:34PM 35.8061 -81.9033 225° Southwest 355 409 34,000  Level Atlanta Center
01:35PM 35.7367 -81.9947 227° Southwest 355 409 34,000  Level Atlanta Center
01:36PM 35.6692 -82.0806 226° Southwest 355 409 34,000  Level Atlanta Center
01:37PM 35.5997 -82.1667 225° Southwest 355 409 34,000  Level Atlanta Center
01:38PM 35.5300 -82.2550 226° Southwest 355 409 34,000  Level Atlanta Center
01:39PM 35.4519 -82.3433 223° Southwest 350 403 34,000  Level Atlanta Center
01:40PM 35.3781 -82.4289 223° Southwest 350 403 34,000  Level Atlanta Center
01:41PM 35.3039 -82.5092 221° Southwest 355 409 34,000  Level Atlanta Center
01:42PM 35.2403 -82.5817 223° Southwest 355 409 34,000  Level Atlanta Center
01:43PM 35.1681 -82.6642 223° Southwest 355 409 34,000 -120 Level Atlanta Center
01:44PM 35.0958 -82.7467 223° Southwest 362 417 33,800 -900 Descending Atlanta Center
01:45PM 35.0236 -82.8264 222° Southwest 362 417 32,200 -1,620 Descending Atlanta Center
01:46PM 34.9472 -82.9086 221° Southwest 357 411 30,600 -1,680 Descending Atlanta Center
01:47PM 34.8686 -82.9881 220° Southwest 363 418 28,900 -1,740 Descending Atlanta Center
01:48PM 34.7881 -83.0728 221° Southwest 373 429 27,200 -1,680 Descending Atlanta Center
01:49PM 34.7156 -83.1594 225° Southwest 379 436 25,600 -1,620 Descending Atlanta Center
01:50PM 34.6411 -83.2408 222° Southwest 368 423 24,000 -1,620 Descending Atlanta Center
01:51PM 34.5686 -83.3197 222° Southwest 359 413 22,400 -1,560 Descending Atlanta Center
01:52PM 34.4917 -83.4036 222° Southwest 353 406 20,900 -1,560 Descending Atlanta Center
01:53PM 34.4192 -83.4822 222° Southwest 353 406 19,300 -1,560 Descending Atlanta Center
01:54PM 34.3486 -83.5583 222° Southwest 346 398 17,800 -1,500 Descending Atlanta Center
01:55PM 34.2819 -83.6314 222° Southwest 341 392 16,300 -1,560 Descending Atlanta Center
01:56PM 34.2153 -83.7072 223° Southwest 336 387 14,700 -1,500 Descending Atlanta Center
01:57PM 34.1489 -83.7778 221° Southwest 336 387 13,300 -1,380 Descending Atlanta Center
01:58PM 34.0883 -83.8406 221° Southwest 310 357 12,000 -1,320 Descending Atlanta Center
01:59PM 34.0300 -83.9033 222° Southwest 294 338 10,700 -1,020 Descending Atlanta Center
02:00PM 33.9675 -83.9461 210° Southwest 289 333 10,000 -360 Descending Atlanta Center
02:01PM 33.8797 -83.9511 183° South 301 346 10,000 -540 Level Atlanta Center
02:02PM 33.8025 -83.9564 183° South 296 341 9,000 -1,200 Descending Atlanta Center
02:03PM 33.7317 -83.9689 188° South 273 314 7,700 -720 Descending Atlanta Center
02:06PM 33.6333 -84.0667 220° Southwest 179 206 6,700 -540 Descending Atlanta TRACON
02:07PM 33.6333 -84.1167 270° West 172 198 5,900 -840 Descending Atlanta TRACON
02:08PM 33.6333 -84.1667 270° West 154 177 5,100 -840 Descending Atlanta TRACON
02:09PM 33.6333 -84.2167 270° West 153 176 4,300 -900 Descending Atlanta TRACON
02:10PM 33.6333 -84.2833 270° West 161 185 3,400 -900 Descending Atlanta TRACON
02:11PM 33.6333 -84.3333 270° West 159 183 2,500 -900 Descending Atlanta TRACON
02:12PM 33.6333 -84.3833 270° West 128 147 1,700 -840 Descending Atlanta TRACON